sensor_id;sensor_type;location;lat;lon;timestamp;pressure;altitude;pressure_sealevel;temperature;humidity
51245;BME280;37840;47.562;18.738;2023-01-19T00:02:26;98075.84;;;5.79;91.74
51245;BME280;37840;47.562;18.738;2023-01-19T00:04:53;98071.66;;;5.77;91.51
51245;BME280;37840;47.562;18.738;2023-01-19T00:07:18;98065.56;;;5.76;91.38
51245;BME280;37840;47.562;18.738;2023-01-19T00:09:44;98064.69;;;5.76;91.27
51245;BME280;37840;47.562;18.738;2023-01-19T00:12:11;98065.66;;;5.75;91.21
51245;BME280;37840;47.562;18.738;2023-01-19T00:14:37;98057.87;;;5.73;91.29
51245;BME280;37840;47.562;18.738;2023-01-19T00:17:02;98057.25;;;5.69;91.39
51245;BME280;37840;47.562;18.738;2023-01-19T00:19:28;98065.87;;;5.71;91.26
51245;BME280;37840;47.562;18.738;2023-01-19T00:21:54;98069.59;;;5.69;91.28
51245;BME280;37840;47.562;18.738;2023-01-19T00:24:20;98071.66;;;5.65;91.43
51245;BME280;37840;47.562;18.738;2023-01-19T00:26:46;98063.75;;;5.65;91.47
51245;BME280;37840;47.562;18.738;2023-01-19T00:29:13;98061.94;;;5.66;91.35
51245;BME280;37840;47.562;18.738;2023-01-19T00:31:40;98067.22;;;5.66;91.40
51245;BME280;37840;47.562;18.738;2023-01-19T00:34:06;98070.69;;;5.66;91.39
51245;BME280;37840;47.562;18.738;2023-01-19T00:36:33;98072.37;;;5.67;91.23
51245;BME280;37840;47.562;18.738;2023-01-19T00:38:59;98071.78;;;5.64;91.48
51245;BME280;37840;47.562;18.738;2023-01-19T00:41:25;98074.41;;;5.64;91.35
51245;BME280;37840;47.562;18.738;2023-01-19T00:44:10;98072.72;;;5.63;91.43
51245;BME280;37840;47.562;18.738;2023-01-19T00:46:37;98071.78;;;5.64;91.28
51245;BME280;37840;47.562;18.738;2023-01-19T00:49:04;98066.00;;;5.59;91.41
51245;BME280;37840;47.562;18.738;2023-01-19T00:51:30;98065.28;;;5.57;91.33
51245;BME280;37840;47.562;18.738;2023-01-19T00:53:57;98066.13;;;5.57;91.22
51245;BME280;37840;47.562;18.738;2023-01-19T00:56:32;98072.34;;;5.56;91.01
51245;BME280;37840;47.562;18.738;2023-01-19T00:58:58;98063.63;;;5.56;90.94
51245;BME280;37840;47.562;18.738;2023-01-19T01:01:25;98064.56;;;5.55;90.78
51245;BME280;37840;47.562;18.738;2023-01-19T01:03:51;98065.63;;;5.52;90.95
51245;BME280;37840;47.562;18.738;2023-01-19T01:06:20;98068.28;;;5.52;90.82
51245;BME280;37840;47.562;18.738;2023-01-19T01:08:46;98067.81;;;5.47;91.02
51245;BME280;37840;47.562;18.738;2023-01-19T01:11:12;98066.25;;;5.44;91.18
51245;BME280;37840;47.562;18.738;2023-01-19T01:13:38;98072.34;;;5.45;91.13
51245;BME280;37840;47.562;18.738;2023-01-19T01:16:05;98066.34;;;5.43;91.21
51245;BME280;37840;47.562;18.738;2023-01-19T01:18:32;98063.94;;;5.40;91.36
51245;BME280;37840;47.562;18.738;2023-01-19T01:21:05;98063.84;;;5.41;91.22
51245;BME280;37840;47.562;18.738;2023-01-19T01:23:32;98065.37;;;5.44;91.28
51245;BME280;37840;47.562;18.738;2023-01-19T01:25:59;98073.53;;;5.41;91.61
51245;BME280;37840;47.562;18.738;2023-01-19T01:28:25;98072.56;;;5.42;91.68
51245;BME280;37840;47.562;18.738;2023-01-19T01:30:52;98066.56;;;5.40;91.81
51245;BME280;37840;47.562;18.738;2023-01-19T01:33:19;98078.81;;;5.41;91.94
51245;BME280;37840;47.562;18.738;2023-01-19T01:35:44;98084.34;;;5.38;91.81
51245;BME280;37840;47.562;18.738;2023-01-19T01:38:10;98086.97;;;5.38;91.80
51245;BME280;37840;47.562;18.738;2023-01-19T01:40:39;98100.84;;;5.40;91.69
51245;BME280;37840;47.562;18.738;2023-01-19T01:43:13;98103.63;;;5.38;91.52
51245;BME280;37840;47.562;18.738;2023-01-19T01:45:40;98103.72;;;5.37;91.51
51245;BME280;37840;47.562;18.738;2023-01-19T01:48:12;98107.09;;;5.39;91.02
51245;BME280;37840;47.562;18.738;2023-01-19T01:50:49;98113.34;;;5.38;90.49
51245;BME280;37840;47.562;18.738;2023-01-19T01:53:36;98120.38;;;5.37;90.11
51245;BME280;37840;47.562;18.738;2023-01-19T01:56:07;98125.53;;;5.39;89.77
51245;BME280;37840;47.562;18.738;2023-01-19T01:58:34;98121.34;;;5.36;89.60
51245;BME280;37840;47.562;18.738;2023-01-19T02:01:02;98132.63;;;5.38;89.59
51245;BME280;37840;47.562;18.738;2023-01-19T02:03:46;98129.16;;;5.38;89.28
51245;BME280;37840;47.562;18.738;2023-01-19T02:06:13;98128.41;;;5.36;88.90
51245;BME280;37840;47.562;18.738;2023-01-19T02:08:58;98133.81;;;5.34;88.87
51245;BME280;37840;47.562;18.738;2023-01-19T02:11:45;98147.19;;;5.31;88.82
51245;BME280;37840;47.562;18.738;2023-01-19T02:14:30;98144.81;;;5.28;88.92
51245;BME280;37840;47.562;18.738;2023-01-19T02:16:56;98145.03;;;5.25;89.06
51245;BME280;37840;47.562;18.738;2023-01-19T02:19:41;98130.06;;;5.25;89.24
51245;BME280;37840;47.562;18.738;2023-01-19T02:22:30;98106.44;;;5.24;89.57
51245;BME280;37840;47.562;18.738;2023-01-19T02:25:03;98093.28;;;5.24;89.70
51245;BME280;37840;47.562;18.738;2023-01-19T02:27:30;98101.28;;;5.22;89.80
51245;BME280;37840;47.562;18.738;2023-01-19T02:29:57;98103.00;;;5.23;89.55
51245;BME280;37840;47.562;18.738;2023-01-19T02:32:23;98116.38;;;5.20;89.24
51245;BME280;37840;47.562;18.738;2023-01-19T02:34:49;98115.53;;;5.20;89.05
51245;BME280;37840;47.562;18.738;2023-01-19T02:37:16;98126.31;;;5.17;88.43
51245;BME280;37840;47.562;18.738;2023-01-19T02:39:55;98119.59;;;5.13;87.92
51245;BME280;37840;47.562;18.738;2023-01-19T02:42:31;98103.06;;;5.10;87.82
51245;BME280;37840;47.562;18.738;2023-01-19T02:44:59;98101.63;;;5.06;87.72
51245;BME280;37840;47.562;18.738;2023-01-19T02:47:25;98115.62;;;5.07;87.35
51245;BME280;37840;47.562;18.738;2023-01-19T02:49:56;98118.59;;;5.02;87.55
51245;BME280;37840;47.562;18.738;2023-01-19T02:52:23;98122.41;;;4.98;87.84
51245;BME280;37840;47.562;18.738;2023-01-19T03:21:34;98130.34;;;4.37;87.00
51245;BME280;37840;47.562;18.738;2023-01-19T03:24:05;98142.03;;;4.33;87.18
51245;BME280;37840;47.562;18.738;2023-01-19T03:26:37;98136.19;;;4.29;87.37
51245;BME280;37840;47.562;18.738;2023-01-19T03:29:07;98130.91;;;4.29;87.50
51245;BME280;37840;47.562;18.738;2023-01-19T03:31:35;98133.66;;;4.28;87.24
51245;BME280;37840;47.562;18.738;2023-01-19T03:34:05;98110.50;;;4.20;87.20
51245;BME280;37840;47.562;18.738;2023-01-19T03:39:04;98099.47;;;4.15;87.45
51245;BME280;37840;47.562;18.738;2023-01-19T03:41:32;98099.06;;;4.08;86.70
51245;BME280;37840;47.562;18.738;2023-01-19T03:44:00;98090.06;;;4.00;87.04
51245;BME280;37840;47.562;18.738;2023-01-19T03:46:26;98085.22;;;3.94;86.96
51245;BME280;37840;47.562;18.738;2023-01-19T03:48:53;98065.87;;;3.82;86.93
51245;BME280;37840;47.562;18.738;2023-01-19T03:51:20;98042.25;;;3.69;87.36
51245;BME280;37840;47.562;18.738;2023-01-19T03:53:46;98045.84;;;3.55;87.32
51245;BME280;37840;47.562;18.738;2023-01-19T03:56:20;98073.47;;;3.48;87.30
51245;BME280;37840;47.562;18.738;2023-01-19T03:58:47;98095.78;;;3.42;87.81
51245;BME280;37840;47.562;18.738;2023-01-19T04:01:13;98108.19;;;3.40;87.67
51245;BME280;37840;47.562;18.738;2023-01-19T04:03:40;98115.53;;;3.35;87.62
51245;BME280;37840;47.562;18.738;2023-01-19T04:06:08;98132.34;;;3.33;87.72
51245;BME280;37840;47.562;18.738;2023-01-19T04:08:34;98139.78;;;3.26;88.00
51245;BME280;37840;47.562;18.738;2023-01-19T04:11:01;98136.44;;;3.24;88.29
51245;BME280;37840;47.562;18.738;2023-01-19T04:13:27;98126.84;;;3.23;88.66
51245;BME280;37840;47.562;18.738;2023-01-19T04:16:01;98128.03;;;3.19;89.15
51245;BME280;37840;47.562;18.738;2023-01-19T04:18:28;98137.06;;;3.15;89.63
51245;BME280;37840;47.562;18.738;2023-01-19T04:20:54;98141.56;;;3.13;89.94
51245;BME280;37840;47.562;18.738;2023-01-19T04:23:24;98140.59;;;3.14;90.07
51245;BME280;37840;47.562;18.738;2023-01-19T04:25:56;98137.06;;;3.15;90.05
51245;BME280;37840;47.562;18.738;2023-01-19T04:28:22;98130.00;;;3.15;90.14
51245;BME280;37840;47.562;18.738;2023-01-19T04:30:50;98113.28;;;3.16;90.06
51245;BME280;37840;47.562;18.738;2023-01-19T04:33:18;98123.91;;;3.15;89.88
51245;BME280;37840;47.562;18.738;2023-01-19T04:35:45;98118.75;;;3.13;89.56
51245;BME280;37840;47.562;18.738;2023-01-19T04:38:11;98107.41;;;3.13;89.16
51245;BME280;37840;47.562;18.738;2023-01-19T04:40:37;98099.81;;;3.08;89.09
51245;BME280;37840;47.562;18.738;2023-01-19T04:43:02;98104.66;;;3.01;89.43
51245;BME280;37840;47.562;18.738;2023-01-19T04:45:28;98117.50;;;3.06;89.59
51245;BME280;37840;47.562;18.738;2023-01-19T04:47:55;98127.13;;;3.05;89.87
51245;BME280;37840;47.562;18.738;2023-01-19T04:50:21;98104.66;;;3.01;90.24
51245;BME280;37840;47.562;18.738;2023-01-19T04:52:46;98081.00;;;3.01;90.60
51245;BME280;37840;47.562;18.738;2023-01-19T04:55:14;98088.37;;;3.09;90.25
51245;BME280;37840;47.562;18.738;2023-01-19T04:57:40;98107.91;;;3.05;90.18
51245;BME280;37840;47.562;18.738;2023-01-19T05:00:06;98097.81;;;2.99;90.46
51245;BME280;37840;47.562;18.738;2023-01-19T05:02:33;98104.66;;;3.01;90.73
51245;BME280;37840;47.562;18.738;2023-01-19T05:04:59;98110.75;;;3.02;90.78
51245;BME280;37840;47.562;18.738;2023-01-19T05:07:25;98121.03;;;3.05;90.94
51245;BME280;37840;47.562;18.738;2023-01-19T05:09:51;98121.69;;;3.09;91.01
51245;BME280;37840;47.562;18.738;2023-01-19T05:12:17;98126.00;;;3.10;90.91
51245;BME280;37840;47.562;18.738;2023-01-19T05:14:43;98128.31;;;3.14;91.21
51245;BME280;37840;47.562;18.738;2023-01-19T05:17:09;98131.47;;;3.19;91.14
51245;BME280;37840;47.562;18.738;2023-01-19T05:19:35;98143.47;;;3.23;90.89
51245;BME280;37840;47.562;18.738;2023-01-19T05:22:02;98158.38;;;3.23;90.78
51245;BME280;37840;47.562;18.738;2023-01-19T05:24:28;98176.66;;;3.24;90.67
51245;BME280;37840;47.562;18.738;2023-01-19T05:26:54;98181.91;;;3.24;90.63
51245;BME280;37840;47.562;18.738;2023-01-19T05:29:20;98187.91;;;3.26;90.59
51245;BME280;37840;47.562;18.738;2023-01-19T05:31:46;98187.81;;;3.28;90.83
51245;BME280;37840;47.562;18.738;2023-01-19T05:34:12;98192.34;;;3.26;90.87
51245;BME280;37840;47.562;18.738;2023-01-19T05:36:39;98179.84;;;3.30;90.91
51245;BME280;37840;47.562;18.738;2023-01-19T05:39:05;98177.97;;;3.32;90.84
51245;BME280;37840;47.562;18.738;2023-01-19T05:41:31;98177.66;;;3.36;90.77
51245;BME280;37840;47.562;18.738;2023-01-19T05:43:57;98168.06;;;3.35;90.79
51245;BME280;37840;47.562;18.738;2023-01-19T05:46:23;98162.06;;;3.33;91.21
51245;BME280;37840;47.562;18.738;2023-01-19T05:48:49;98166.28;;;3.36;91.35
51245;BME280;37840;47.562;18.738;2023-01-19T05:51:15;98171.66;;;3.34;91.37
51245;BME280;37840;47.562;18.738;2023-01-19T05:53:41;98176.16;;;3.32;91.63
51245;BME280;37840;47.562;18.738;2023-01-19T05:56:08;98165.75;;;3.31;91.78
51245;BME280;37840;47.562;18.738;2023-01-19T05:58:36;98175.12;;;3.35;91.84
51245;BME280;37840;47.562;18.738;2023-01-19T06:01:05;98154.75;;;3.38;92.00
51245;BME280;37840;47.562;18.738;2023-01-19T06:03:33;98149.16;;;3.43;91.96
51245;BME280;37840;47.562;18.738;2023-01-19T06:06:00;98145.81;;;3.41;91.88
51245;BME280;37840;47.562;18.738;2023-01-19T06:08:27;98146.63;;;3.41;91.98
51245;BME280;37840;47.562;18.738;2023-01-19T06:10:53;98144.09;;;3.40;92.13
51245;BME280;37840;47.562;18.738;2023-01-19T06:13:19;98148.44;;;3.41;92.46
51245;BME280;37840;47.562;18.738;2023-01-19T06:15:45;98163.38;;;3.40;92.74
51245;BME280;37840;47.562;18.738;2023-01-19T06:18:11;98148.34;;;3.42;92.79
51245;BME280;37840;47.562;18.738;2023-01-19T06:20:37;98148.94;;;3.46;92.94
51245;BME280;37840;47.562;18.738;2023-01-19T06:23:03;98144.25;;;3.51;92.98
51245;BME280;37840;47.562;18.738;2023-01-19T06:25:29;98130.03;;;3.54;92.97
51245;BME280;37840;47.562;18.738;2023-01-19T06:27:55;98119.22;;;3.58;92.86
51245;BME280;37840;47.562;18.738;2023-01-19T06:30:21;98121.94;;;3.57;93.07
51245;BME280;37840;47.562;18.738;2023-01-19T06:32:47;98099.88;;;3.59;92.78
51245;BME280;37840;47.562;18.738;2023-01-19T06:35:13;98107.62;;;3.61;92.88
51245;BME280;37840;47.562;18.738;2023-01-19T06:37:39;98120.78;;;3.61;93.12
51245;BME280;37840;47.562;18.738;2023-01-19T06:40:07;98133.31;;;3.57;93.11
51245;BME280;37840;47.562;18.738;2023-01-19T06:42:33;98163.69;;;3.61;93.38
51245;BME280;37840;47.562;18.738;2023-01-19T06:44:59;98167.16;;;3.62;93.44
51245;BME280;37840;47.562;18.738;2023-01-19T06:47:25;98184.72;;;3.61;93.26
51245;BME280;37840;47.562;18.738;2023-01-19T06:49:51;98181.97;;;3.63;93.25
51245;BME280;37840;47.562;18.738;2023-01-19T06:52:16;98172.19;;;3.65;93.44
51245;BME280;37840;47.562;18.738;2023-01-19T06:54:44;98160.94;;;3.63;93.74
51245;BME280;37840;47.562;18.738;2023-01-19T06:57:11;98134.88;;;3.60;93.93
51245;BME280;37840;47.562;18.738;2023-01-19T06:59:37;98122.56;;;3.60;93.99
51245;BME280;37840;47.562;18.738;2023-01-19T07:02:03;98114.06;;;3.57;94.21
51245;BME280;37840;47.562;18.738;2023-01-19T07:04:29;98108.59;;;3.60;94.22
51245;BME280;37840;47.562;18.738;2023-01-19T07:06:55;98112.06;;;3.60;94.17
51245;BME280;37840;47.562;18.738;2023-01-19T07:09:21;98103.34;;;3.60;94.32
51245;BME280;37840;47.562;18.738;2023-01-19T07:11:47;98090.94;;;3.62;94.39
51245;BME280;37840;47.562;18.738;2023-01-19T07:14:13;98110.41;;;3.59;94.13
51245;BME280;37840;47.562;18.738;2023-01-19T07:16:40;98106.91;;;3.59;94.07
51245;BME280;37840;47.562;18.738;2023-01-19T07:19:06;98098.19;;;3.58;93.92
51245;BME280;37840;47.562;18.738;2023-01-19T07:21:32;98096.37;;;3.59;93.91
51245;BME280;37840;47.562;18.738;2023-01-19T07:23:58;98126.25;;;3.58;93.97
51245;BME280;37840;47.562;18.738;2023-01-19T07:26:24;98135.22;;;3.55;93.51
51245;BME280;37840;47.562;18.738;2023-01-19T07:28:51;98131.09;;;3.51;93.64
51245;BME280;37840;47.562;18.738;2023-01-19T07:31:17;98150.44;;;3.50;93.53
51245;BME280;37840;47.562;18.738;2023-01-19T07:33:43;98157.88;;;3.43;93.86
51245;BME280;37840;47.562;18.738;2023-01-19T07:36:10;98150.84;;;3.44;93.85
51245;BME280;37840;47.562;18.738;2023-01-19T07:38:36;98142.97;;;3.44;93.73
51245;BME280;37840;47.562;18.738;2023-01-19T07:41:03;98152.62;;;3.43;93.57
51245;BME280;37840;47.562;18.738;2023-01-19T07:43:30;98158.84;;;3.42;93.19
51245;BME280;37840;47.562;18.738;2023-01-19T07:45:58;98150.31;;;3.39;93.47
51245;BME280;37840;47.562;18.738;2023-01-19T07:48:24;98159.78;;;3.41;93.42
51245;BME280;37840;47.562;18.738;2023-01-19T07:50:50;98168.50;;;3.42;93.70
51245;BME280;37840;47.562;18.738;2023-01-19T07:53:16;98169.13;;;3.45;93.37
51245;BME280;37840;47.562;18.738;2023-01-19T07:55:42;98187.44;;;3.47;93.33
51245;BME280;37840;47.562;18.738;2023-01-19T07:58:08;98189.09;;;3.48;93.16
51245;BME280;37840;47.562;18.738;2023-01-19T08:00:36;98187.03;;;3.53;92.83
51245;BME280;37840;47.562;18.738;2023-01-19T08:03:03;98181.66;;;3.55;92.76
51245;BME280;37840;47.562;18.738;2023-01-19T08:05:31;98183.75;;;3.50;93.08
51245;BME280;37840;47.562;18.738;2023-01-19T08:07:58;98191.84;;;3.46;93.25
51245;BME280;37840;47.562;18.738;2023-01-19T08:10:25;98189.09;;;3.48;93.42
51245;BME280;37840;47.562;18.738;2023-01-19T08:12:53;98190.69;;;3.51;93.37
51245;BME280;37840;47.562;18.738;2023-01-19T08:15:19;98184.28;;;3.55;93.05
51245;BME280;37840;47.562;18.738;2023-01-19T08:18:02;98175.78;;;3.51;92.70
51245;BME280;37840;47.562;18.738;2023-01-19T08:20:30;98167.75;;;3.53;92.45
51245;BME280;37840;47.562;18.738;2023-01-19T08:22:57;98178.41;;;3.51;92.56
51245;BME280;37840;47.562;18.738;2023-01-19T08:25:41;98166.84;;;3.54;92.85
51245;BME280;37840;47.562;18.738;2023-01-19T08:28:07;98173.16;;;3.51;92.82
51245;BME280;37840;47.562;18.738;2023-01-19T08:30:34;98167.47;;;3.57;92.80
51245;BME280;37840;47.562;18.738;2023-01-19T08:33:00;98158.72;;;3.57;92.64
51245;BME280;37840;47.562;18.738;2023-01-19T08:35:33;98165.59;;;3.59;92.46
51245;BME280;37840;47.562;18.738;2023-01-19T08:37:59;98153.38;;;3.58;92.64
51245;BME280;37840;47.562;18.738;2023-01-19T08:40:28;98157.06;;;3.56;93.03
51245;BME280;37840;47.562;18.738;2023-01-19T08:42:58;98160.44;;;3.58;92.83
51245;BME280;37840;47.562;18.738;2023-01-19T08:45:28;98169.97;;;3.59;92.79
51245;BME280;37840;47.562;18.738;2023-01-19T08:47:56;98173.56;;;3.58;92.97
51245;BME280;37840;47.562;18.738;2023-01-19T08:50:30;98178.19;;;3.54;92.96
51245;BME280;37840;47.562;18.738;2023-01-19T08:53:01;98188.69;;;3.54;92.80
51245;BME280;37840;47.562;18.738;2023-01-19T08:55:28;98191.53;;;3.51;92.81
51245;BME280;37840;47.562;18.738;2023-01-19T08:57:55;98183.75;;;3.50;93.22
51245;BME280;37840;47.562;18.738;2023-01-19T09:00:22;98178.50;;;3.50;93.41
51245;BME280;37840;47.562;18.738;2023-01-19T09:02:49;98174.50;;;3.57;93.04
51245;BME280;37840;47.562;18.738;2023-01-19T09:05:16;98185.97;;;3.56;92.65
51245;BME280;37840;47.562;18.738;2023-01-19T09:07:43;98188.28;;;3.60;92.68
51245;BME280;37840;47.562;18.738;2023-01-19T09:10:10;98183.12;;;3.59;92.15
51245;BME280;37840;47.562;18.738;2023-01-19T09:12:36;98185.13;;;3.55;91.96
51245;BME280;37840;47.562;18.738;2023-01-19T09:15:03;98185.22;;;3.54;91.97
51245;BME280;37840;47.562;18.738;2023-01-19T09:17:29;98199.22;;;3.54;91.74
51245;BME280;37840;47.562;18.738;2023-01-19T09:19:55;98214.34;;;3.51;91.79
51245;BME280;37840;47.562;18.738;2023-01-19T09:22:21;98217.59;;;3.41;91.99
51245;BME280;37840;47.562;18.738;2023-01-19T09:24:47;98205.19;;;3.43;92.11
51245;BME280;37840;47.562;18.738;2023-01-19T09:27:13;98198.78;;;3.47;91.52
51245;BME280;37840;47.562;18.738;2023-01-19T09:29:39;98193.19;;;3.39;91.25
51245;BME280;37840;47.562;18.738;2023-01-19T09:32:05;98196.97;;;3.35;91.52
51245;BME280;37840;47.562;18.738;2023-01-19T09:34:31;98188.56;;;3.30;91.46
51245;BME280;37840;47.562;18.738;2023-01-19T09:36:57;98189.50;;;3.29;91.32
51245;BME280;37840;47.562;18.738;2023-01-19T09:39:23;98189.88;;;3.23;91.63
51245;BME280;37840;47.562;18.738;2023-01-19T09:42:01;98182.88;;;3.23;91.63
51245;BME280;37840;47.562;18.738;2023-01-19T09:44:33;98197.78;;;3.23;91.98
51245;BME280;37840;47.562;18.738;2023-01-19T09:47:12;98202.84;;;3.26;91.74
51245;BME280;37840;47.562;18.738;2023-01-19T09:49:42;98203.25;;;3.20;91.63
51245;BME280;37840;47.562;18.738;2023-01-19T09:52:13;98192.38;;;3.12;91.86
51245;BME280;37840;47.562;18.738;2023-01-19T09:54:48;98193.03;;;3.15;91.88
51245;BME280;37840;47.562;18.738;2023-01-19T09:57:14;98197.56;;;3.13;92.23
51245;BME280;37840;47.562;18.738;2023-01-19T09:59:40;98194.91;;;3.13;92.09
51245;BME280;37840;47.562;18.738;2023-01-19T10:02:55;98194.09;;;3.13;92.19
51245;BME280;37840;47.562;18.738;2023-01-19T10:10:21;98167.69;;;3.14;92.13
51245;BME280;37840;47.562;18.738;2023-01-19T10:18:16;98188.72;;;3.14;92.20
51245;BME280;37840;47.562;18.738;2023-01-19T10:20:53;98190.81;;;3.09;92.47
51245;BME280;37840;47.562;18.738;2023-01-19T10:23:27;98195.75;;;3.14;92.24
51245;BME280;37840;47.562;18.738;2023-01-19T10:25:55;98193.44;;;3.09;92.07
51245;BME280;37840;47.562;18.738;2023-01-19T10:28:24;98189.84;;;3.10;92.27
51245;BME280;37840;47.562;18.738;2023-01-19T10:30:53;98188.09;;;3.11;92.31
51245;BME280;37840;47.562;18.738;2023-01-19T10:33:19;98187.22;;;3.10;92.13
51245;BME280;37840;47.562;18.738;2023-01-19T10:35:45;98189.75;;;3.12;92.18
51245;BME280;37840;47.562;18.738;2023-01-19T10:38:13;98188.53;;;3.17;92.38
51245;BME280;37840;47.562;18.738;2023-01-19T10:40:49;98191.16;;;3.17;91.90
51245;BME280;37840;47.562;18.738;2023-01-19T10:46:00;98189.16;;;3.21;91.66
51245;BME280;37840;47.562;18.738;2023-01-19T10:48:36;98215.41;;;3.21;91.61
51245;BME280;37840;47.562;18.738;2023-01-19T10:51:04;98205.97;;;3.18;91.81
51245;BME280;37840;47.562;18.738;2023-01-19T10:53:31;98213.84;;;3.18;91.88
51245;BME280;37840;47.562;18.738;2023-01-19T10:56:16;98209.44;;;3.19;91.96
51245;BME280;37840;47.562;18.738;2023-01-19T10:58:45;98221.62;;;3.20;91.91
51245;BME280;37840;47.562;18.738;2023-01-19T11:01:18;98216.38;;;3.20;91.64
51245;BME280;37840;47.562;18.738;2023-01-19T11:03:45;98225.81;;;3.22;91.44
51245;BME280;37840;47.562;18.738;2023-01-19T11:08:50;98226.66;;;3.23;91.30
51245;BME280;37840;47.562;18.738;2023-01-19T11:11:18;98231.19;;;3.21;91.48
51245;BME280;37840;47.562;18.738;2023-01-19T11:14:01;98231.91;;;3.23;91.36
51245;BME280;37840;47.562;18.738;2023-01-19T11:16:30;98229.50;;;3.20;91.38
51245;BME280;37840;47.562;18.738;2023-01-19T11:18:57;98230.56;;;3.17;91.21
51245;BME280;37840;47.562;18.738;2023-01-19T11:21:25;98225.91;;;3.21;91.09
51245;BME280;37840;47.562;18.738;2023-01-19T11:23:54;98222.38;;;3.22;91.11
51245;BME280;37840;47.562;18.738;2023-01-19T11:26:28;98214.78;;;3.17;91.28
51245;BME280;37840;47.562;18.738;2023-01-19T11:28:57;98214.06;;;3.15;91.12
51245;BME280;37840;47.562;18.738;2023-01-19T11:33:55;98221.94;;;3.15;91.55
51245;BME280;37840;47.562;18.738;2023-01-19T11:38:53;98234.09;;;3.16;91.50
51245;BME280;37840;47.562;18.738;2023-01-19T11:41:32;98231.31;;;3.19;91.39
51245;BME280;37840;47.562;18.738;2023-01-19T11:44:08;98234.53;;;3.23;91.15
51245;BME280;37840;47.562;18.738;2023-01-19T11:46:38;98241.50;;;3.24;90.60
51245;BME280;37840;47.562;18.738;2023-01-19T11:51:57;98243.44;;;3.08;91.14
51245;BME280;37840;47.562;18.738;2023-01-19T11:54:30;98230.00;;;3.12;91.25
51245;BME280;37840;47.562;18.738;2023-01-19T11:56:59;98237.72;;;3.01;91.60
51245;BME280;37840;47.562;18.738;2023-01-19T11:59:25;98240.81;;;3.08;91.77
51245;BME280;37840;47.562;18.738;2023-01-19T12:01:54;98244.00;;;3.13;91.56
51245;BME280;37840;47.562;18.738;2023-01-19T12:04:31;98248.37;;;3.12;91.56
51245;BME280;37840;47.562;18.738;2023-01-19T12:07:02;98253.44;;;3.15;91.18
51245;BME280;37840;47.562;18.738;2023-01-19T12:09:37;98257.66;;;3.18;91.15
51245;BME280;37840;47.562;18.738;2023-01-19T12:12:11;98256.81;;;3.17;91.28
51245;BME280;37840;47.562;18.738;2023-01-19T12:17:26;98272.50;;;3.19;90.96
51245;BME280;37840;47.562;18.738;2023-01-19T12:20:00;98277.84;;;3.17;90.76
51245;BME280;37840;47.562;18.738;2023-01-19T12:22:28;98284.88;;;3.17;90.49
51245;BME280;37840;47.562;18.738;2023-01-19T12:25:17;98278.97;;;3.13;90.90
51245;BME280;37840;47.562;18.738;2023-01-19T12:27:46;98279.91;;;3.12;90.71
51245;BME280;37840;47.562;18.738;2023-01-19T12:30:24;98281.69;;;3.12;90.75
51245;BME280;37840;47.562;18.738;2023-01-19T12:32:51;98295.47;;;3.15;90.78
51245;BME280;37840;47.562;18.738;2023-01-19T12:43:39;98302.97;;;3.21;90.61
51245;BME280;37840;47.562;18.738;2023-01-19T12:46:40;98309.28;;;3.19;91.02
51245;BME280;37840;47.562;18.738;2023-01-19T12:49:19;98322.84;;;3.25;91.00
51245;BME280;37840;47.562;18.738;2023-01-19T12:51:46;98322.84;;;3.25;90.84
51245;BME280;37840;47.562;18.738;2023-01-19T12:54:30;98316.09;;;3.21;90.80
51245;BME280;37840;47.562;18.738;2023-01-19T12:57:00;98320.59;;;3.19;90.26
51245;BME280;37840;47.562;18.738;2023-01-19T12:59:27;98321.44;;;3.20;90.62
51245;BME280;37840;47.562;18.738;2023-01-19T13:10:52;98334.94;;;3.28;90.99
51245;BME280;37840;47.562;18.738;2023-01-19T13:13:27;98333.16;;;3.29;90.43
51245;BME280;37840;47.562;18.738;2023-01-19T13:24:03;98363.94;;;3.26;89.87
51245;BME280;37840;47.562;18.738;2023-01-19T13:26:34;98374.72;;;3.22;89.86
51245;BME280;37840;47.562;18.738;2023-01-19T13:29:16;98373.78;;;3.23;89.96
51245;BME280;37840;47.562;18.738;2023-01-19T13:31:45;98376.22;;;3.26;89.73
51245;BME280;37840;47.562;18.738;2023-01-19T13:34:19;98383.53;;;3.21;89.59
51245;BME280;37840;47.562;18.738;2023-01-19T13:36:50;98396.97;;;3.16;89.69
51245;BME280;37840;47.562;18.738;2023-01-19T13:41:49;98403.72;;;3.20;89.55
51245;BME280;37840;47.562;18.738;2023-01-19T13:46:49;98422.00;;;3.22;89.58
51245;BME280;37840;47.562;18.738;2023-01-19T13:49:21;98417.06;;;3.17;89.65
51245;BME280;37840;47.562;18.738;2023-01-19T13:52:21;98416.22;;;3.17;89.70
51245;BME280;37840;47.562;18.738;2023-01-19T13:54:57;98411.50;;;3.22;89.66
51245;BME280;37840;47.562;18.738;2023-01-19T14:00:26;98425.69;;;3.19;89.29
51245;BME280;37840;47.562;18.738;2023-01-19T14:02:58;98418.09;;;3.15;88.74
51245;BME280;37840;47.562;18.738;2023-01-19T14:08:09;98427.28;;;3.08;88.95
51245;BME280;37840;47.562;18.738;2023-01-19T14:13:13;98439.56;;;3.07;88.93
51245;BME280;37840;47.562;18.738;2023-01-19T14:15:39;98443.16;;;3.06;88.66
51245;BME280;37840;47.562;18.738;2023-01-19T14:26:03;98431.37;;;2.97;89.12
51245;BME280;37840;47.562;18.738;2023-01-19T14:28:33;98425.38;;;2.95;89.00
51245;BME280;37840;47.562;18.738;2023-01-19T14:31:22;98429.34;;;2.88;89.44
51245;BME280;37840;47.562;18.738;2023-01-19T14:33:55;98430.00;;;2.92;89.48
51245;BME280;37840;47.562;18.738;2023-01-19T14:36:36;98436.47;;;2.86;89.58
51245;BME280;37840;47.562;18.738;2023-01-19T14:39:04;98446.13;;;2.85;89.46
51245;BME280;37840;47.562;18.738;2023-01-19T14:41:39;98445.38;;;2.83;89.12
51245;BME280;37840;47.562;18.738;2023-01-19T14:44:09;98444.63;;;2.81;89.17
51245;BME280;37840;47.562;18.738;2023-01-19T14:46:36;98453.91;;;2.73;89.40
51245;BME280;37840;47.562;18.738;2023-01-19T14:49:04;98446.69;;;2.76;88.90
51245;BME280;37840;47.562;18.738;2023-01-19T14:51:31;98449.47;;;2.73;89.13
51245;BME280;37840;47.562;18.738;2023-01-19T14:53:59;98447.13;;;2.69;89.40